• Join FlightAware (Why Join?)
  • Login
  • US Flag 
09:07AM EDT


 

Airport Tracker/Info


-or-


 

Live Flight TrackerFlight Track Log ✈ LBQ792 ✈ 09-May-2013 ✈ KAGC - KIAD

Flight Track Log - Related Links

Times and Time Zones

All times are in EDT time to prevent confusion due to time zone crossing. See the LBQ792 flight status page for this flight to view local times or setup timezone preferences in your user account.

Time Position Orientation Groundspeed Altitude Reporting Facility
EDT Latitude Longitude Course Direction KTS MPH feet Rate Location/Type
12:37AM 40.2978 -79.7611 117° Southeast 173 199 5,700  Level Cleveland Center
12:38AM 40.2681 -79.7069 126° Southeast 173 199 7,200 1,440 Climbing Cleveland Center
12:39AM 40.2364 -79.6531 128° Southeast 185 213 8,600 1,380 Climbing Cleveland Center
12:40AM 40.2025 -79.5964 128° Southeast 197 227 10,000 1,380 Climbing Cleveland Center
12:41AM 39.9154 -79.8795 175° South  Level FlightAware Approximate
12:41AM 40.1667 -79.5344 127° Southeast 203 234 11,400  Level Cleveland Center
12:42AM 40.1347 -79.4753 125° Southeast 203 234 12,700 1,200 Climbing Cleveland Center
12:43AM 40.0967 -79.4161 130° Southeast 203 234 13,900 1,140 Climbing Cleveland Center
12:44AM 40.0583 -79.3517 128° Southeast 203 234 15,000 600 Climbing Cleveland Center
12:45AM 40.0139 -79.2792 129° Southeast 227 261 15,100  Climbing Cleveland Center
12:46AM 39.9669 -79.2017 128° Southeast 257 296 15,000 -60 Descending Cleveland Center
12:49AM 39.8650 -79.0219 126° Southeast 263 303 15,000  Level Washington Center
12:50AM 39.8114 -78.9247 126° Southeast 279 321 15,000  Level Washington Center
12:51AM 39.7636 -78.8444 128° Southeast 292 336 15,000  Level Washington Center
12:52AM 39.7158 -78.7611 127° Southeast 286 329 15,000  Level Washington Center
12:53AM 39.6700 -78.6783 126° Southeast 286 329 15,000 -480 Level Washington Center
12:54AM 39.6242 -78.5928 125° Southeast 286 329 14,100 -1,020 Descending Washington Center
12:55AM 39.5742 -78.5100 128° Southeast 286 329 13,100 -1,140 Descending Washington Center
12:56AM 39.5242 -78.4244 127° Southeast 286 329 11,900 -1,200 Descending Washington Center
12:57AM 39.4719 -78.3392 128° Southeast 286 329 10,800 -1,080 Descending Washington Center
12:58AM 39.4197 -78.2567 129° Southeast 286 329 9,700 -1,140 Descending Washington Center
12:59AM 39.3692 -78.1742 128° Southeast 291 335 8,600 -1,200 Descending Washington Center
01:00AM 39.3211 -78.0919 127° Southeast 291 335 7,400 -1,200 Descending Washington Center
01:01AM 39.2725 -78.0125 128° Southeast 291 335 6,300 -720 Descending Washington Center
01:02AM 39.2303 -77.9361 125° Southeast 280 322 6,000 -180 Descending Washington Center
01:03AM 39.1900 -77.8625 125° Southeast 268 308 6,000  Level Washington Center
01:04AM 39.1478 -77.7889 126° Southeast 258 297 6,000 -840 Level Washington Center
01:06AM 39.0333 -77.6667 140° Southeast 233 268 3,500 -960 Descending Potomac TRACON
01:07AM 38.9833 -77.6333 153° Southeast 221 254 3,000 -300 Descending Potomac TRACON
01:08AM 38.9500 -77.5833 131° Southeast 217 250 2,900 -600 Descending Potomac TRACON
01:09AM 38.9333 -77.5167 108° East 220 253 1,900 -1,020 Descending Potomac TRACON
01:10AM 38.9333 -77.4667 90° East 173 199 900 -1,020 Descending Potomac TRACON
01:12AM 38.9333 -77.4500 90° East  Level FlightAware Approximate
01:19AM 38.9474 -77.4599 90° East  Level Estimated
01:20AM 38.9474 -77.4599 90° East  Level Estimated
01:21AM 38.9474 -77.4599 90° East  Level Estimated
01:22AM 38.9474 -77.4599 90° East  Level Estimated
01:23AM 38.9474 -77.4599 90° East  Level Estimated
01:24AM 38.9474 -77.4599 90° East  Level Estimated